Time;durP1;ratioP1;P1;durP2;ratioP2;P2;SDS_P1;SDS_P2;PMS_P1;PMS_P2;Temp;Humidity;BMP_temperature;BMP_pressure;BME280_temperature;BME280_humidity;BME280_pressure;Samples;Min_cycle;Max_cycle;Signal;HPM_P1;HPM_P2
2023/02/09 00:00:15;;;;;;;37.73;18.90;;;;;;;-2.22;81.65;102640.53;5078599;28;20509;-66
2023/02/09 00:02:42;;;;;;;34.30;18.67;;;;;;;-2.25;81.58;102630.88;5078143;28;20827;-65
2023/02/09 00:05:10;;;;;;;38.27;20.30;;;;;;;-2.26;81.10;102631.75;5079295;28;20823;-66
2023/02/09 00:07:36;;;;;;;39.00;20.37;;;;;;;-2.25;81.58;102630.00;5076084;28;20224;-66
2023/02/09 00:10:04;;;;;;;39.17;19.43;;;;;;;-2.25;80.90;102638.72;5071767;28;20199;-65
2023/02/09 00:15:15;;;;;;;40.33;18.83;;;;;;;-2.25;81.14;102630.88;5060163;28;20258;-66
2023/02/09 00:17:41;;;;;;;37.63;19.73;;;;;;;-2.27;80.66;102623.88;5065655;28;20221;-66
2023/02/09 00:20:09;;;;;;;36.43;18.57;;;;;;;-2.30;80.98;102624.69;5067067;28;20220;-66
2023/02/09 00:22:35;;;;;;;35.60;18.90;;;;;;;-2.32;80.74;102623.78;5062041;28;20203;-65
2023/02/09 00:25:01;;;;;;;34.17;17.87;;;;;;;-2.32;80.64;102617.66;5063432;28;20204;-66
2023/02/09 00:27:31;;;;;;;35.00;19.50;;;;;;;-2.32;80.43;102615.94;5065386;28;20212;-65
2023/02/09 00:29:57;;;;;;;39.33;18.70;;;;;;;-2.33;80.37;102622.00;5066285;28;20189;-65
2023/02/09 00:32:24;;;;;;;38.47;19.43;;;;;;;-2.35;80.85;102612.41;5068311;28;20212;-66
2023/02/09 00:34:50;;;;;;;37.20;19.83;;;;;;;-2.37;80.27;102614.09;5066945;28;20208;-65
2023/02/09 00:37:16;;;;;;;43.40;20.47;;;;;;;-2.39;80.56;102618.41;5066806;28;20224;-66
2023/02/09 00:39:43;;;;;;;40.67;19.23;;;;;;;-2.41;80.54;102612.28;5063947;28;20229;-66
2023/02/09 00:42:10;;;;;;;40.87;19.47;;;;;;;-2.43;80.38;102608.75;5062541;28;20617;-65
2023/02/09 00:44:40;;;;;;;37.23;17.70;;;;;;;-2.45;80.82;102613.94;5065150;28;20204;-64
2023/02/09 00:47:08;;;;;;;32.17;19.23;;;;;;;-2.49;80.40;102615.59;5066279;28;20217;-66
2023/02/09 00:49:35;;;;;;;40.57;19.00;;;;;;;-2.51;80.66;102611.22;5061594;28;20205;-66
2023/02/09 00:52:01;;;;;;;35.27;17.70;;;;;;;-2.52;80.02;102610.34;5064657;28;20663;-66
2023/02/09 00:54:28;;;;;;;42.70;19.60;;;;;;;-2.53;80.33;102603.34;5066935;28;20203;-65
2023/02/09 00:56:54;;;;;;;41.87;19.13;;;;;;;-2.50;80.44;102600.78;5060528;28;20237;-65
2023/02/09 00:59:21;;;;;;;40.47;20.13;;;;;;;-2.49;80.31;102599.06;5063304;28;20212;-65
2023/02/09 01:01:48;;;;;;;38.30;18.07;;;;;;;-2.48;80.47;102598.22;5056828;28;20217;-66
2023/02/09 01:04:15;;;;;;;46.27;19.40;;;;;;;-2.43;80.51;102598.31;5064999;28;20216;-65
2023/02/09 01:06:41;;;;;;;38.13;17.87;;;;;;;-2.40;80.71;102593.16;5064846;28;20221;-65
2023/02/09 01:09:08;;;;;;;37.20;18.70;;;;;;;-2.38;80.39;102609.72;5055776;28;20197;-65
2023/02/09 01:11:34;;;;;;;33.73;18.37;;;;;;;-2.38;80.33;102615.84;5066422;28;20215;-65
2023/02/09 01:14:03;;;;;;;38.27;18.93;;;;;;;-2.37;80.67;102607.16;5062295;28;20204;-65
2023/02/09 01:16:30;;;;;;;34.30;18.07;;;;;;;-2.37;80.47;102607.16;5064328;28;20726;-65
2023/02/09 01:18:59;;;;;;;37.97;18.63;;;;;;;-2.34;80.18;102609.84;5064603;28;20574;-66
2023/02/09 01:21:25;;;;;;;37.63;19.00;;;;;;;-2.33;79.72;102605.50;5066324;28;20224;-65
2023/02/09 01:23:52;;;;;;;41.07;17.77;;;;;;;-2.34;79.63;102603.75;5057496;28;20201;-66
2023/02/09 01:26:19;;;;;;;41.40;20.40;;;;;;;-2.37;79.26;102593.22;5064971;28;20208;-65
2023/02/09 01:28:49;;;;;;;32.90;17.40;;;;;;;-2.40;79.04;102596.66;5059095;28;20209;-65
2023/02/09 01:31:23;;;;;;;32.73;16.93;;;;;;;-2.43;79.23;102587.88;5062904;28;20204;-65
2023/02/09 01:33:49;;;;;;;34.13;16.37;;;;;;;-2.45;79.12;102590.44;5060643;28;20208;-65
2023/02/09 01:36:17;;;;;;;32.13;15.50;;;;;;;-2.47;78.68;102573.88;5053369;28;20576;-66
2023/02/09 01:38:44;;;;;;;30.63;15.97;;;;;;;-2.48;78.85;102579.94;5057082;28;20201;-65
2023/02/09 01:41:10;;;;;;;36.80;17.00;;;;;;;-2.48;78.52;102586.03;5059720;28;20224;-65
2023/02/09 01:43:55;;;;;;;28.80;16.27;;;;;;;-2.49;78.71;102571.25;5058104;28;20206;-67
2023/02/09 01:46:23;;;;;;;29.30;15.57;;;;;;;-2.49;78.82;102578.19;5063890;28;20254;-66
2023/02/09 01:48:53;;;;;;;24.50;13.97;;;;;;;-2.48;78.41;102582.56;5064903;28;20196;-66
2023/02/09 01:51:22;;;;;;;29.97;15.17;;;;;;;-2.46;78.73;102573.91;5067504;28;20205;-66
2023/02/09 01:53:50;;;;;;;26.20;14.50;;;;;;;-2.45;78.19;102565.25;5061033;28;20200;-65
2023/02/09 01:56:20;;;;;;;29.30;14.87;;;;;;;-2.45;78.04;102556.53;5059326;28;20216;-65
2023/02/09 01:58:48;;;;;;;33.67;16.27;;;;;;;-2.47;78.31;102560.84;5065040;28;20864;-65
2023/02/09 02:01:16;;;;;;;30.87;15.07;;;;;;;-2.49;77.87;102557.31;5063305;28;20228;-65
2023/02/09 02:03:42;;;;;;;30.90;16.23;;;;;;;-2.53;77.80;102553.78;5062559;28;20205;-65
2023/02/09 02:06:12;;;;;;;33.50;16.53;;;;;;;-2.56;77.57;102551.09;5059346;28;20624;-65
2023/02/09 02:08:44;;;;;;;29.40;15.70;;;;;;;-2.58;77.62;102557.13;5059951;28;20201;-65
2023/02/09 02:11:10;;;;;;;31.43;15.13;;;;;;;-2.60;78.05;102553.63;5059409;28;20195;-65
2023/02/09 02:13:36;;;;;;;29.43;14.63;;;;;;;-2.60;77.73;102532.75;5053737;28;20206;-65
2023/02/09 02:16:10;;;;;;;23.80;14.13;;;;;;;-2.64;78.05;102528.31;5054351;28;20209;-65
2023/02/09 02:18:56;;;;;;;29.70;13.87;;;;;;;-2.63;77.88;102520.50;5054384;28;20208;-67
2023/02/09 02:21:55;;;;;;;28.93;15.27;;;;;;;-2.63;77.57;102512.69;5061490;28;20243;-65
2023/02/09 02:24:51;;;;;;;27.23;13.90;;;;;;;-2.60;77.81;102514.50;5057071;28;20215;-65
2023/02/09 02:27:30;;;;;;;25.13;13.43;;;;;;;-2.60;77.40;102511.88;5022959;28;20304;-65
2023/02/09 02:30:28;;;;;;;23.13;13.93;;;;;;;-2.56;77.34;102509.38;5052035;28;20227;-64
2023/02/09 02:33:06;;;;;;;28.87;14.30;;;;;;;-2.53;77.78;102503.34;5057655;28;20209;-65
2023/02/09 02:35:36;;;;;;;24.47;13.60;;;;;;;-2.52;77.24;102510.31;5058517;28;20304;-66
2023/02/09 02:38:15;;;;;;;25.73;13.53;;;;;;;-2.51;77.64;102507.72;5056346;28;20652;-65
2023/02/09 02:40:49;;;;;;;27.80;13.70;;;;;;;-2.50;77.60;102512.06;5055502;28;20217;-66
2023/02/09 02:43:24;;;;;;;24.07;13.33;;;;;;;-2.49;77.22;102515.56;5060924;28;20214;-65
2023/02/09 02:45:57;;;;;;;25.60;13.40;;;;;;;-2.45;77.07;102507.84;5055965;28;20208;-66
2023/02/09 02:48:33;;;;;;;27.10;13.70;;;;;;;-2.46;77.22;102494.75;5086029;22;20228;-66
2023/02/09 02:51:04;;;;;;;25.23;12.90;;;;;;;-2.44;77.20;102490.47;5084090;28;20200;-67
2023/02/09 02:53:33;;;;;;;18.93;11.03;;;;;;;-2.42;76.86;102490.50;5085318;28;20633;-67
2023/02/09 02:56:04;;;;;;;25.83;13.53;;;;;;;-2.42;76.52;102491.38;5084387;28;20196;-67
2023/02/09 02:58:34;;;;;;;22.13;12.77;;;;;;;-2.42;76.12;102490.50;5084611;28;20235;-67
2023/02/09 03:01:01;;;;;;;22.37;11.57;;;;;;;-2.42;76.33;102485.28;5075601;28;20687;-66
2023/02/09 03:03:32;;;;;;;22.43;12.27;;;;;;;-2.41;75.84;102481.81;5075692;28;20203;-67
2023/02/09 03:06:02;;;;;;;20.93;12.40;;;;;;;-2.41;75.83;102480.09;5081927;28;20215;-68
2023/02/09 03:08:29;;;;;;;18.80;11.37;;;;;;;-2.41;75.41;102474.88;5085973;28;20609;-67
2023/02/09 03:10:56;;;;;;;23.70;12.23;;;;;;;-2.41;75.38;102485.31;5075675;28;20211;-66
2023/02/09 03:13:37;;;;;;;19.30;11.33;;;;;;;-2.42;75.49;102480.94;5081820;28;20208;-69
2023/02/09 03:16:18;;;;;;;22.83;12.17;;;;;;;-2.44;75.26;102477.41;5080618;28;20212;-67
2023/02/09 03:18:58;;;;;;;19.17;10.97;;;;;;;-2.45;75.22;102473.03;5085462;28;20224;-67
2023/02/09 03:21:34;;;;;;;20.23;11.13;;;;;;;-2.45;75.03;102475.66;5078577;28;20711;-66
2023/02/09 03:24:05;;;;;;;15.40;10.43;;;;;;;-2.47;74.91;102462.56;5082750;28;20196;-67
2023/02/09 03:26:39;;;;;;;18.33;10.57;;;;;;;-2.49;74.91;102466.00;5080281;28;20220;-67
2023/02/09 03:29:08;;;;;;;18.63;11.10;;;;;;;-2.48;74.32;102467.75;5079100;28;20211;-68
2023/02/09 03:31:35;;;;;;;20.70;10.03;;;;;;;-2.48;74.30;102470.38;5085678;28;20231;-67
2023/02/09 03:34:04;;;;;;;20.90;10.80;;;;;;;-2.48;74.51;102467.75;5080393;28;20204;-67
2023/02/09 03:36:33;;;;;;;21.13;11.10;;;;;;;-2.47;74.20;102466.91;5075669;28;20227;-67
2023/02/09 03:39:00;;;;;;;17.93;10.60;;;;;;;-2.46;74.21;102460.84;5078958;28;20745;-66
2023/02/09 03:41:27;;;;;;;19.13;10.60;;;;;;;-2.46;74.18;102458.25;5080207;28;20718;-66
2023/02/09 03:46:38;;;;;;;17.97;9.70;;;;;;;-2.47;73.70;102456.47;5080296;28;20463;-67
2023/02/09 03:49:05;;;;;;;18.73;9.73;;;;;;;-2.48;73.46;102459.94;5078215;28;20221;-67
2023/02/09 03:51:32;;;;;;;18.97;9.60;;;;;;;-2.48;73.61;102462.53;5084570;28;20216;-67
2023/02/09 03:53:58;;;;;;;18.20;9.83;;;;;;;-2.49;73.38;102448.63;5087521;28;20208;-67
2023/02/09 03:56:25;;;;;;;17.10;9.07;;;;;;;-2.47;73.63;102452.13;5086784;28;20215;-66
2023/02/09 03:58:52;;;;;;;21.07;9.50;;;;;;;-2.46;73.38;102458.25;5087545;28;20239;-66
2023/02/09 04:01:18;;;;;;;16.97;9.10;;;;;;;-2.45;72.90;102452.16;5081744;28;20220;-67
2023/02/09 04:03:44;;;;;;;15.00;9.73;;;;;;;-2.43;72.84;102453.09;5079375;28;20197;-66
2023/02/09 04:06:13;;;;;;;15.27;8.80;;;;;;;-2.44;72.74;102446.09;5087126;28;20209;-67
2023/02/09 04:08:41;;;;;;;18.03;9.13;;;;;;;-2.45;72.65;102439.13;5081526;28;20239;-67
2023/02/09 04:11:09;;;;;;;17.40;9.20;;;;;;;-2.46;72.89;102437.38;5087847;28;20200;-67
2023/02/09 04:13:36;;;;;;;18.73;9.40;;;;;;;-2.48;72.28;102439.06;5087871;28;20205;-68
2023/02/09 04:16:02;;;;;;;14.77;9.03;;;;;;;-2.48;72.04;102439.06;5084523;28;20510;-67
2023/02/09 04:18:29;;;;;;;14.70;8.60;;;;;;;-2.49;71.75;102442.53;5081849;28;20243;-67
2023/02/09 04:20:55;;;;;;;16.67;8.93;;;;;;;-2.51;71.92;102439.03;5087504;28;20232;-67
2023/02/09 04:23:23;;;;;;;17.27;8.53;;;;;;;-2.51;71.86;102437.28;5081903;28;20287;-67
2023/02/09 04:25:49;;;;;;;16.20;9.10;;;;;;;-2.54;71.83;102429.41;5086126;28;20208;-67
2023/02/09 04:28:16;;;;;;;15.87;8.53;;;;;;;-2.56;71.55;102425.03;5082931;28;20221;-67
2023/02/09 04:30:43;;;;;;;18.07;9.43;;;;;;;-2.60;71.43;102434.50;5084496;28;20208;-67
2023/02/09 04:33:10;;;;;;;16.93;9.20;;;;;;;-2.64;71.27;102435.28;5085483;28;20246;-67
2023/02/09 04:35:37;;;;;;;16.40;8.50;;;;;;;-2.68;71.04;102429.97;5088900;28;20728;-66
2023/02/09 04:38:04;;;;;;;16.10;9.20;;;;;;;-2.72;71.33;102425.59;5083123;28;20208;-67
2023/02/09 04:40:31;;;;;;;20.63;9.97;;;;;;;-2.75;70.78;102425.50;5085365;28;20209;-67
2023/02/09 04:42:58;;;;;;;19.03;10.30;;;;;;;-2.75;71.00;102415.09;5084078;28;20236;-68
2023/02/09 04:45:24;;;;;;;16.67;8.27;;;;;;;-2.76;71.18;102416.81;5088247;28;20208;-67
2023/02/09 04:47:51;;;;;;;17.03;8.93;;;;;;;-2.75;71.48;102417.69;5086880;28;20204;-66
2023/02/09 04:50:18;;;;;;;13.30;8.30;;;;;;;-2.75;70.91;102417.69;5083703;28;20247;-66
2023/02/09 04:52:44;;;;;;;15.97;9.80;;;;;;;-2.75;71.49;102412.47;5086439;28;20200;-67
2023/02/09 04:55:11;;;;;;;14.80;8.80;;;;;;;-2.75;71.29;102413.34;5084069;28;20220;-67
2023/02/09 05:00:23;;;;;;;17.53;8.37;;;;;;;-2.70;70.96;102409.13;5080092;28;20293;-67
2023/02/09 05:02:49;;;;;;;14.87;8.20;;;;;;;-2.71;71.24;102415.19;5081579;28;20224;-67
2023/02/09 05:05:16;;;;;;;15.80;8.30;;;;;;;-2.72;70.86;102420.38;5085847;28;20196;-67
2023/02/09 05:07:42;;;;;;;19.03;8.90;;;;;;;-2.75;70.83;102412.47;5085942;28;20205;-68
2023/02/09 05:10:09;;;;;;;19.67;9.60;;;;;;;-2.79;71.07;102408.94;5085057;28;20230;-66
2023/02/09 05:12:36;;;;;;;24.53;11.27;;;;;;;-2.82;71.03;102411.47;5086780;28;20236;-67
2023/02/09 05:15:04;;;;;;;26.70;11.93;;;;;;;-2.86;70.70;102409.66;5086275;28;20212;-68
2023/02/09 05:17:31;;;;;;;23.03;10.73;;;;;;;-2.86;70.97;102407.91;5081902;28;20405;-67
2023/02/09 05:19:58;;;;;;;22.93;10.40;;;;;;;-2.87;71.15;102393.16;5086421;28;20228;-67
2023/02/09 05:22:24;;;;;;;18.33;9.67;;;;;;;-2.88;70.90;102388.78;5083977;28;20224;-67
2023/02/09 05:24:51;;;;;;;17.87;8.77;;;;;;;-2.85;70.85;102390.53;5085051;28;20204;-67
2023/02/09 05:27:18;;;;;;;16.37;8.47;;;;;;;-2.80;71.19;102389.78;5083533;28;20668;-67
2023/02/09 05:29:44;;;;;;;16.87;9.50;;;;;;;-2.75;71.22;102391.63;5083778;28;20220;-67
2023/02/09 05:32:12;;;;;;;14.33;9.03;;;;;;;-2.73;70.77;102395.13;5083049;28;20209;-66
2023/02/09 05:34:39;;;;;;;15.87;8.97;;;;;;;-2.73;70.73;102393.41;5084279;28;20684;-68
2023/02/09 05:37:05;;;;;;;15.83;8.77;;;;;;;-2.72;71.10;102391.69;5082636;28;20205;-66
2023/02/09 05:39:32;;;;;;;15.73;8.33;;;;;;;-2.72;70.58;102384.75;5083724;28;20221;-68
2023/02/09 05:42:17;;;;;;;18.27;9.33;;;;;;;-2.72;70.87;102383.84;5083156;28;20609;-67
2023/02/09 05:44:44;;;;;;;14.70;8.07;;;;;;;-2.73;70.47;102385.59;5086047;28;20211;-66
2023/02/09 05:47:13;;;;;;;17.53;9.17;;;;;;;-2.75;70.42;102387.28;5079070;28;20345;-68
2023/02/09 05:49:39;;;;;;;17.93;9.57;;;;;;;-2.76;70.88;102382.91;5085298;28;20382;-67
2023/02/09 05:52:07;;;;;;;20.93;10.27;;;;;;;-2.75;70.67;102389.00;5080095;28;20216;-66
2023/02/09 05:54:33;;;;;;;18.67;9.83;;;;;;;-2.75;70.53;102389.00;5085501;28;20298;-67
2023/02/09 05:57:00;;;;;;;15.80;9.23;;;;;;;-2.76;70.34;102395.94;5085795;28;20200;-68
2023/02/09 05:59:26;;;;;;;18.07;10.03;;;;;;;-2.78;70.64;102394.16;5081832;28;20622;-68
2023/02/09 06:01:53;;;;;;;16.07;8.27;;;;;;;-2.81;70.19;102403.69;5084528;28;20608;-68
2023/02/09 06:04:21;;;;;;;18.00;8.57;;;;;;;-2.82;70.15;102396.72;5083355;28;20208;-66
2023/02/09 06:06:48;;;;;;;13.93;8.50;;;;;;;-2.83;69.84;102383.63;5085418;28;20204;-68
2023/02/09 06:09:14;;;;;;;12.93;8.03;;;;;;;-2.84;70.42;102387.97;5083690;28;20745;-67
2023/02/09 06:11:40;;;;;;;13.97;8.97;;;;;;;-2.85;70.11;102388.81;5085510;28;20683;-67
2023/02/09 06:14:07;;;;;;;12.57;8.33;;;;;;;-2.86;70.22;102389.66;5084181;28;20204;-67
2023/02/09 06:16:33;;;;;;;15.03;8.67;;;;;;;-2.84;70.31;102393.19;5083235;28;20208;-68
2023/02/09 06:19:00;;;;;;;13.40;7.97;;;;;;;-2.84;70.45;102395.78;5078066;28;20717;-67
2023/02/09 06:21:28;;;;;;;14.53;8.43;;;;;;;-2.83;70.09;102407.09;5084675;28;20686;-68
2023/02/09 06:23:55;;;;;;;14.93;9.03;;;;;;;-2.84;70.43;102408.81;5083700;28;20200;-66
2023/02/09 06:26:21;;;;;;;16.40;8.23;;;;;;;-2.83;70.11;102409.72;5082821;28;20211;-66
2023/02/09 06:28:48;;;;;;;17.40;9.10;;;;;;;-2.81;70.61;102398.47;5084894;28;20219;-67
2023/02/09 06:31:14;;;;;;;15.43;8.00;;;;;;;-2.78;70.19;102401.97;5081287;28;20523;-67
2023/02/09 06:33:41;;;;;;;12.63;7.23;;;;;;;-2.78;70.37;102396.78;5077505;28;20223;-72
2023/02/09 06:36:08;;;;;;;14.77;8.07;;;;;;;-2.77;70.02;102395.91;5083414;28;20204;-72
2023/02/09 06:38:37;;;;;;;13.73;7.77;;;;;;;-2.76;70.31;102397.69;5082680;28;20228;-71
2023/02/09 06:41:04;;;;;;;12.17;6.30;;;;;;;-2.73;70.03;102392.53;5078642;28;20294;-72
2023/02/09 06:43:30;;;;;;;16.30;7.80;;;;;;;-2.68;70.65;102383.91;5080842;28;20728;-71
2023/02/09 06:45:57;;;;;;;13.17;7.60;;;;;;;-2.63;70.41;102395.31;5085646;28;20220;-71
2023/02/09 06:48:23;;;;;;;13.90;7.93;;;;;;;-2.61;70.37;102396.22;5081264;28;20232;-72
2023/02/09 06:50:49;;;;;;;13.90;8.20;;;;;;;-2.55;70.29;102396.34;5080631;28;20204;-73
2023/02/09 06:53:17;;;;;;;15.43;8.80;;;;;;;-2.52;69.40;102406.84;5084321;28;20231;-71
2023/02/09 06:55:45;;;;;;;17.27;8.13;;;;;;;-2.50;69.47;102410.34;5081380;28;20604;-72
2023/02/09 06:58:11;;;;;;;14.87;7.70;;;;;;;-2.46;69.43;102401.72;5085962;28;20212;-71
2023/02/09 07:00:38;;;;;;;14.17;8.53;;;;;;;-2.43;69.26;102413.06;5084819;28;20204;-72
2023/02/09 07:03:04;;;;;;;16.07;8.60;;;;;;;-2.43;69.46;102421.78;5074761;28;20224;-73
2023/02/09 07:05:31;;;;;;;13.70;8.63;;;;;;;-2.41;69.24;102438.34;5084862;28;20208;-72
2023/02/09 07:07:57;;;;;;;15.47;8.37;;;;;;;-2.40;68.52;102440.09;5084614;28;20207;-69
2023/02/09 07:10:23;;;;;;;17.60;8.20;;;;;;;-2.36;68.52;102438.44;5082514;28;20567;-71
2023/02/09 07:12:51;;;;;;;14.00;7.77;;;;;;;-2.34;68.53;102424.56;5078580;28;20204;-69
2023/02/09 07:15:18;;;;;;;15.97;10.23;;;;;;;-2.31;68.27;102421.09;5082653;28;20204;-72
2023/02/09 07:17:44;;;;;;;15.07;8.13;;;;;;;-2.27;68.38;102423.81;5082632;28;20211;-71
2023/02/09 07:20:11;;;;;;;17.10;9.37;;;;;;;-2.25;68.06;102416.00;5077655;28;20627;-71
2023/02/09 07:22:38;;;;;;;16.33;8.90;;;;;;;-2.25;68.46;102411.66;5085611;28;20231;-72
2023/02/09 07:25:05;;;;;;;16.00;9.07;;;;;;;-2.26;68.64;102412.50;5087369;28;20207;-72
2023/02/09 07:27:32;;;;;;;14.63;8.13;;;;;;;-2.26;68.51;102416.84;5084792;28;20208;-73
2023/02/09 07:29:59;;;;;;;13.67;8.23;;;;;;;-2.25;68.37;102413.41;5083251;28;20660;-69
2023/02/09 07:32:26;;;;;;;14.73;7.70;;;;;;;-2.23;68.36;102399.53;5079236;28;20208;-72
2023/02/09 07:34:53;;;;;;;17.30;8.80;;;;;;;-2.19;68.35;102401.34;5083798;28;20204;-72
2023/02/09 07:37:19;;;;;;;12.60;6.97;;;;;;;-2.17;68.29;102411.81;5085719;28;20208;-70
2023/02/09 07:39:46;;;;;;;13.17;8.53;;;;;;;-2.14;68.81;102420.53;5086185;28;20219;-72
2023/02/09 07:42:12;;;;;;;14.43;7.80;;;;;;;-2.10;68.55;102424.97;5087284;28;20224;-72
2023/02/09 07:44:38;;;;;;;15.27;8.17;;;;;;;-2.07;68.57;102415.44;5090400;28;20200;-73
2023/02/09 07:47:06;;;;;;;13.77;8.03;;;;;;;-2.01;67.91;102412.94;5080830;28;20204;-71
2023/02/09 07:49:34;;;;;;;17.67;8.80;;;;;;;-1.96;67.70;102419.09;5085574;28;20236;-73
2023/02/09 07:52:01;;;;;;;16.40;8.70;;;;;;;-1.94;67.61;102433.94;5087973;28;20200;-72
2023/02/09 07:54:27;;;;;;;18.00;8.63;;;;;;;-1.91;67.45;102440.94;5085278;28;20207;-73
2023/02/09 07:56:55;;;;;;;11.67;7.80;;;;;;;-1.89;67.74;102434.00;5086395;28;20608;-72
2023/02/09 07:59:21;;;;;;;15.90;8.90;;;;;;;-1.86;67.70;102437.56;5084861;28;20508;-72
2023/02/09 08:01:48;;;;;;;15.87;8.57;;;;;;;-1.82;67.98;102431.53;5083415;28;20600;-72
2023/02/09 08:04:16;;;;;;;14.43;8.13;;;;;;;-1.79;67.81;102434.16;5088678;28;20211;-71
2023/02/09 08:06:44;;;;;;;18.23;8.50;;;;;;;-1.78;67.75;102435.03;5086186;28;20200;-72
2023/02/09 08:09:13;;;;;;;15.00;8.63;;;;;;;-1.75;67.97;102435.09;5078641;28;20255;-72
2023/02/09 08:11:43;;;;;;;11.87;6.80;;;;;;;-1.68;67.77;102431.75;5087156;28;20219;-71
2023/02/09 08:14:13;;;;;;;13.20;7.87;;;;;;;-1.64;67.77;102441.38;5086512;28;20201;-71
2023/02/09 08:16:41;;;;;;;12.70;7.50;;;;;;;-1.59;67.60;102442.31;5082415;28;20208;-71
2023/02/09 08:19:12;;;;;;;14.10;8.50;;;;;;;-1.53;67.77;102442.41;5080269;28;20277;-71
2023/02/09 08:21:43;;;;;;;13.87;8.17;;;;;;;-1.48;67.44;102435.53;5077941;28;20212;-73
2023/02/09 08:24:12;;;;;;;10.07;5.87;;;;;;;-1.40;66.82;102433.00;5084099;28;20235;-72
2023/02/09 08:26:40;;;;;;;13.57;7.50;;;;;;;-1.31;66.63;102427.03;5085265;28;20204;-72
2023/02/09 08:29:07;;;;;;;14.97;7.43;;;;;;;-1.22;66.43;102433.25;5079165;28;20224;-72
2023/02/09 08:31:34;;;;;;;14.73;7.40;;;;;;;-1.16;65.96;102422.00;5082353;28;20203;-73
2023/02/09 08:34:00;;;;;;;13.27;8.60;;;;;;;-1.12;65.50;102419.47;5083448;28;20205;-71
2023/02/09 08:36:27;;;;;;;13.20;7.73;;;;;;;-1.02;64.82;102409.09;5082929;28;20200;-71
2023/02/09 08:38:54;;;;;;;13.87;7.67;;;;;;;-0.94;64.65;102405.75;5082738;28;20237;-72
2023/02/09 08:41:21;;;;;;;14.70;7.67;;;;;;;-0.85;64.41;102408.44;5084264;28;20213;-72
2023/02/09 08:43:48;;;;;;;12.83;6.67;;;;;;;-0.76;64.39;102408.56;5083508;28;20683;-72
2023/02/09 08:46:15;;;;;;;14.97;8.53;;;;;;;-0.70;64.14;102416.47;5081712;28;20236;-70
2023/02/09 08:48:44;;;;;;;13.13;7.80;;;;;;;-0.61;64.02;102409.59;5079874;28;20247;-72
2023/02/09 08:51:12;;;;;;;16.17;9.00;;;;;;;-0.54;63.94;102403.56;5086789;28;20592;-72
2023/02/09 08:53:38;;;;;;;17.27;8.37;;;;;;;-0.50;63.86;102403.59;5084919;28;20227;-72
2023/02/09 08:56:07;;;;;;;17.60;8.50;;;;;;;-0.43;63.71;102412.41;5076767;28;20212;-71
2023/02/09 08:58:34;;;;;;;15.47;7.73;;;;;;;-0.37;63.68;102409.84;5083519;28;20602;-71
2023/02/09 09:01:00;;;;;;;15.20;8.47;;;;;;;-0.32;63.20;102407.25;5084507;28;20216;-70
2023/02/09 09:03:30;;;;;;;13.17;7.90;;;;;;;-0.26;63.05;102405.56;5080871;28;20602;-72
2023/02/09 09:05:57;;;;;;;14.43;7.97;;;;;;;-0.19;62.68;102417.88;5085125;28;20809;-71
2023/02/09 09:08:23;;;;;;;13.10;7.90;;;;;;;-0.13;62.52;102409.16;5083653;28;20894;-71
2023/02/09 09:10:50;;;;;;;16.40;7.97;;;;;;;-0.05;62.46;102421.47;5087393;28;20211;-71
2023/02/09 09:13:18;;;;;;;15.00;8.10;;;;;;;0.06;62.03;102420.69;5085201;28;20220;-71
2023/02/09 09:15:44;;;;;;;12.07;8.27;;;;;;;0.15;62.23;102424.25;5079111;28;20216;-70
2023/02/09 09:18:11;;;;;;;16.10;8.87;;;;;;;0.25;62.33;102435.69;5077321;28;20692;-71
2023/02/09 09:20:38;;;;;;;15.27;8.03;;;;;;;0.34;61.66;102446.25;5084573;28;20211;-72
2023/02/09 09:23:05;;;;;;;12.40;8.03;;;;;;;0.42;61.37;102446.28;5077775;28;20228;-70
2023/02/09 09:25:31;;;;;;;12.83;7.90;;;;;;;0.47;61.35;102450.69;5079304;28;20234;-72
2023/02/09 09:27:58;;;;;;;14.60;7.87;;;;;;;0.53;61.07;102445.50;5081439;28;20200;-72
2023/02/09 09:30:26;;;;;;;12.10;7.77;;;;;;;0.54;60.37;102441.09;5083127;28;20200;-71
2023/02/09 09:32:54;;;;;;;15.53;8.23;;;;;;;0.60;60.12;102446.41;5070461;28;20694;-72
2023/02/09 09:35:20;;;;;;;11.60;7.93;;;;;;;0.63;59.57;102438.56;5085687;28;20262;-69
2023/02/09 09:37:47;;;;;;;11.60;7.93;;;;;;;0.65;59.63;102437.72;5082424;28;20204;-71
2023/02/09 09:40:20;;;;;;;15.03;8.07;;;;;;;0.68;59.39;102442.09;5084362;28;20315;-71
2023/02/09 09:42:50;;;;;;;12.60;7.13;;;;;;;0.72;59.15;102440.38;5082393;28;20224;-73
2023/02/09 09:45:20;;;;;;;16.40;8.73;;;;;;;0.76;58.96;102444.75;5082911;28;20212;-72
2023/02/09 09:47:49;;;;;;;13.43;8.53;;;;;;;0.77;58.44;102451.75;5083616;28;20208;-72
2023/02/09 09:50:21;;;;;;;16.70;7.90;;;;;;;0.83;58.41;102446.53;5086415;28;20275;-71
2023/02/09 09:52:51;;;;;;;14.27;8.20;;;;;;;0.86;58.45;102462.31;5083814;28;20201;-72
2023/02/09 09:55:23;;;;;;;15.03;8.67;;;;;;;0.86;57.95;102460.56;5082892;28;20211;-73
2023/02/09 09:57:51;;;;;;;16.90;8.10;;;;;;;0.90;58.19;102458.81;5080625;28;20440;-72
2023/02/09 10:00:20;;;;;;;13.93;7.87;;;;;;;0.94;57.89;102463.22;5079848;28;20638;-72
2023/02/09 10:02:48;;;;;;;12.87;7.83;;;;;;;0.98;57.80;102464.97;5081317;28;20724;-72
2023/02/09 10:05:18;;;;;;;12.50;8.23;;;;;;;1.04;58.18;102458.03;5082161;28;20216;-73
2023/02/09 10:07:53;;;;;;;13.43;8.00;;;;;;;1.11;57.73;102452.78;5082782;28;20211;-73
2023/02/09 10:10:30;;;;;;;15.47;8.53;;;;;;;1.16;57.53;102453.69;5083763;28;20208;-71
2023/02/09 10:13:01;;;;;;;12.60;8.07;;;;;;;1.23;57.78;102452.84;5082355;28;20710;-72
2023/02/09 10:15:29;;;;;;;17.23;9.50;;;;;;;1.27;57.74;102455.47;5081012;28;20208;-71
2023/02/09 10:17:58;;;;;;;15.03;8.10;;;;;;;1.34;57.19;102461.63;5081426;28;20208;-72
2023/02/09 10:20:43;;;;;;;16.13;8.80;;;;;;;1.39;57.14;102460.78;5080848;28;20215;-72
2023/02/09 10:23:25;;;;;;;26.47;11.83;;;;;;;1.46;57.12;102455.53;5081621;28;20229;-70
2023/02/09 10:25:57;;;;;;;21.13;11.67;;;;;;;1.55;56.64;102455.59;5082128;28;20577;-72
2023/02/09 10:28:25;;;;;;;13.60;8.70;;;;;;;1.60;57.09;102453.84;5084062;28;20704;-73
2023/02/09 10:30:55;;;;;;;14.67;8.97;;;;;;;1.63;57.05;102441.56;5084465;28;20219;-72
2023/02/09 10:33:23;;;;;;;14.93;8.73;;;;;;;1.69;57.01;102456.47;5085965;28;20212;-64
2023/02/09 10:35:53;;;;;;;21.07;10.50;;;;;;;1.74;56.26;102460.88;5082705;28;20196;-66
2023/02/09 10:38:21;;;;;;;17.57;10.33;;;;;;;1.80;56.69;102457.38;5083020;28;20235;-65
2023/02/09 10:40:49;;;;;;;13.67;8.80;;;;;;;1.87;55.92;102460.88;5082659;28;20204;-66
2023/02/09 10:43:23;;;;;;;13.43;9.23;;;;;;;1.90;55.96;102448.63;5080232;28;20257;-63
2023/02/09 10:45:54;;;;;;;14.53;9.43;;;;;;;1.94;55.46;102453.03;5083891;28;20204;-64
2023/02/09 10:48:24;;;;;;;12.53;8.10;;;;;;;1.97;55.58;102450.38;5080044;28;20395;-65
2023/02/09 10:50:52;;;;;;;15.63;9.40;;;;;;;2.02;55.35;102446.00;5082287;28;20200;-67
2023/02/09 10:53:22;;;;;;;13.03;7.80;;;;;;;2.02;54.80;102437.25;5080731;28;20207;-66
2023/02/09 10:55:49;;;;;;;12.63;8.77;;;;;;;2.02;54.36;102451.25;5084264;28;20686;-64
2023/02/09 10:58:24;;;;;;;16.87;9.43;;;;;;;2.03;54.46;102439.00;5080454;28;20234;-65
2023/02/09 11:00:57;;;;;;;17.03;9.77;;;;;;;2.04;54.75;102446.00;5080489;28;20662;-66
2023/02/09 11:03:25;;;;;;;16.73;9.93;;;;;;;2.09;54.37;102439.88;5077893;28;20229;-66
2023/02/09 11:06:01;;;;;;;14.87;9.20;;;;;;;2.09;54.76;102447.78;5085859;28;20216;-65
2023/02/09 11:08:37;;;;;;;11.37;7.00;;;;;;;2.16;54.77;102439.88;5080493;28;20227;-66
2023/02/09 11:11:08;;;;;;;15.17;8.73;;;;;;;2.18;55.16;102439.00;5079527;28;20204;-66
2023/02/09 11:13:34;;;;;;;14.40;8.43;;;;;;;2.26;54.52;102421.47;5081213;28;20200;-67
2023/02/09 11:16:28;;;;;;;14.03;8.77;;;;;;;2.26;54.50;102410.97;5081873;28;20411;-67
2023/02/09 11:19:11;;;;;;;11.63;8.07;;;;;;;2.33;54.28;102406.59;5079918;28;20714;-66
2023/02/09 11:21:55;;;;;;;13.87;8.03;;;;;;;2.34;53.09;102413.56;5084378;28;20242;-67
2023/02/09 11:24:32;;;;;;;13.23;8.10;;;;;;;2.34;53.53;102403.06;5082603;28;20216;-66
2023/02/09 11:27:06;;;;;;;14.23;8.20;;;;;;;2.39;53.53;102403.94;5084527;28;20196;-67
2023/02/09 11:29:40;;;;;;;12.73;8.17;;;;;;;2.43;53.53;102400.41;5083016;28;21319;-67
2023/02/09 11:32:19;;;;;;;10.53;7.03;;;;;;;2.44;53.25;102397.78;5081491;28;20615;-67